Time;durP1;ratioP1;P1;durP2;ratioP2;P2;SDS_P1;SDS_P2;PMS_P1;PMS_P2;Temp;Humidity;BMP_temperature;BMP_pressure;BME280_temperature;BME280_humidity;BME280_pressure;Samples;Min_cycle;Max_cycle;Signal;HPM_P1;HPM_P2
2021/12/15 00:00:26;;;;;;;;;;;23.70;50.90;;;;;;5057916;27;1952;-32
2021/12/15 00:02:53;;;;;;;;;;;23.90;50.50;;;;;;5057306;27;991;-31
2021/12/15 00:05:22;;;;;;;;;;;24.10;50.10;;;;;;5057895;27;1422;-32
2021/12/15 00:07:49;;;;;;;;;;;24.20;49.70;;;;;;5057586;27;932;-32
2021/12/15 00:10:16;;;;;;;;;;;24.40;49.10;;;;;;5057460;27;1007;-33
2021/12/15 00:12:44;;;;;;;;;;;24.50;48.90;;;;;;5057419;27;999;-34
2021/12/15 00:15:12;;;;;;;;;;;24.60;48.60;;;;;;5057592;27;1056;-31
2021/12/15 00:17:38;;;;;;;;;;;24.70;48.30;;;;;;5057345;27;984;-32
2021/12/15 00:20:06;;;;;;;;;;;24.70;48.20;;;;;;5057626;27;1910;-33
2021/12/15 00:22:33;;;;;;;;;;;24.80;48.00;;;;;;5057234;27;1064;-31
2021/12/15 00:25:00;;;;;;;;;;;24.80;47.90;;;;;;5057686;27;980;-31
2021/12/15 00:27:27;;;;;;;;;;;24.90;47.80;;;;;;5057831;27;1011;-33
2021/12/15 00:29:55;;;;;;;;;;;24.80;47.80;;;;;;5057000;27;999;-33
2021/12/15 00:32:21;;;;;;;;;;;24.80;47.80;;;;;;5057099;27;1006;-31
2021/12/15 00:34:51;;;;;;;;;;;24.80;47.70;;;;;;5057669;27;1070;-31
2021/12/15 00:37:17;;;;;;;;;;;24.80;47.80;;;;;;5057233;27;1024;-31
2021/12/15 00:39:44;;;;;;;;;;;24.80;47.90;;;;;;5057216;27;1982;-33
2021/12/15 00:42:11;;;;;;;;;;;24.70;47.80;;;;;;5057273;27;995;-34
2021/12/15 00:44:38;;;;;;;;;;;24.60;48.10;;;;;;5056378;27;990;-32
2021/12/15 00:47:07;;;;;;;;;;;24.60;48.30;;;;;;5056883;27;1008;-32
2021/12/15 00:49:34;;;;;;;;;;;24.50;48.50;;;;;;5055618;27;996;-34
2021/12/15 00:52:00;;;;;;;;;;;24.40;48.50;;;;;;5056525;27;1000;-31
2021/12/15 00:54:27;;;;;;;;;;;24.40;48.60;;;;;;5056995;27;1010;-31
2021/12/15 00:56:55;;;;;;;;;;;24.30;48.70;;;;;;5057579;27;988;-33
2021/12/15 00:59:22;;;;;;;;;;;24.30;48.90;;;;;;5056967;27;1971;-32
2021/12/15 01:01:49;;;;;;;;;;;24.20;49.10;;;;;;5057355;27;967;-33
2021/12/15 01:04:18;;;;;;;;;;;24.20;49.20;;;;;;5056949;27;1014;-32
2021/12/15 01:06:47;;;;;;;;;;;24.10;49.10;;;;;;5057159;27;1272;-31
2021/12/15 01:09:17;;;;;;;;;;;24.10;49.30;;;;;;5057055;27;948;-33
2021/12/15 01:12:09;;;;;;;;;;;24.10;49.20;;;;;;5056830;27;1018;-34
2021/12/15 01:20:05;;;;;;;;;;;24.00;49.30;;;;;;5087344;27;1913;-35
2021/12/15 01:22:34;;;;;;;;;;;24.00;49.50;;;;;;5056608;27;1050;-31
2021/12/15 01:25:02;;;;;;;;;;;23.90;49.40;;;;;;5056567;27;1008;-31
2021/12/15 01:27:29;;;;;;;;;;;23.90;49.60;;;;;;5057001;27;1014;-32
2021/12/15 01:29:56;;;;;;;;;;;23.90;49.70;;;;;;5056821;27;1007;-33
2021/12/15 01:32:22;;;;;;;;;;;23.80;49.80;;;;;;5056815;27;1030;-31
2021/12/15 01:34:49;;;;;;;;;;;23.80;49.90;;;;;;5056951;27;1039;-33
2021/12/15 01:37:18;;;;;;;;;;;23.70;50.10;;;;;;5056417;27;1027;-31
2021/12/15 01:39:45;;;;;;;;;;;23.80;50.10;;;;;;5056606;27;1902;-31
2021/12/15 01:42:12;;;;;;;;;;;23.80;50.30;;;;;;5055375;27;1784;-31
2021/12/15 01:47:25;;;;;;;;;;;23.60;50.60;;;;;;5056519;27;605;-32
2021/12/15 01:49:54;;;;;;;;;;;23.60;50.80;;;;;;5056339;27;1417;-32
2021/12/15 01:52:23;;;;;;;;;;;23.50;51.00;;;;;;5056143;27;933;-31
2021/12/15 01:54:51;;;;;;;;;;;23.40;51.20;;;;;;5056457;27;985;-30
2021/12/15 01:57:18;;;;;;;;;;;23.40;51.40;;;;;;5056525;27;1022;-32
2021/12/15 01:59:46;;;;;;;;;;;23.30;51.50;;;;;;5056082;27;1971;-32
2021/12/15 02:02:14;;;;;;;;;;;23.30;51.50;;;;;;5057393;27;1003;-34
2021/12/15 02:04:40;;;;;;;;;;;23.30;51.60;;;;;;5055345;27;995;-31
2021/12/15 02:07:08;;;;;;;;;;;23.20;51.70;;;;;;5055431;27;1012;-33
2021/12/15 02:12:28;;;;;;;;;;;23.20;51.70;;;;;;5052517;27;1727;-32
2021/12/15 02:14:55;;;;;;;;;;;23.20;51.80;;;;;;5056143;27;1061;-31
2021/12/15 02:17:22;;;;;;;;;;;23.20;52.00;;;;;;5055539;27;979;-31
2021/12/15 02:19:49;;;;;;;;;;;23.10;51.80;;;;;;5055916;27;1982;-33
2021/12/15 02:22:18;;;;;;;;;;;23.10;51.90;;;;;;5055907;27;1042;-30
2021/12/15 02:24:48;;;;;;;;;;;23.10;51.80;;;;;;5055937;27;944;-30
2021/12/15 02:27:15;;;;;;;;;;;23.10;51.80;;;;;;5055659;27;925;-30
2021/12/15 02:29:45;;;;;;;;;;;23.10;51.80;;;;;;5055569;27;1836;-31
2021/12/15 02:32:19;;;;;;;;;;;23.00;51.90;;;;;;5056369;27;1860;-30
2021/12/15 02:37:47;;;;;;;;;;;23.10;52.00;;;;;;5116552;27;1251;-42
2021/12/15 02:40:18;;;;;;;;;;;23.00;51.90;;;;;;5116249;28;1840;-42
2021/12/15 02:42:46;;;;;;;;;;;23.10;51.90;;;;;;5116563;28;1016;-42
2021/12/15 02:45:14;;;;;;;;;;;23.10;51.80;;;;;;5116254;28;998;-41
2021/12/15 02:47:44;;;;;;;;;;;23.10;52.00;;;;;;5116632;28;1022;-42
2021/12/15 02:50:17;;;;;;;;;;;23.10;51.90;;;;;;5116237;28;1014;-42
2021/12/15 02:52:44;;;;;;;;;;;23.20;52.00;;;;;;5116229;28;940;-42
2021/12/15 02:55:14;;;;;;;;;;;23.20;52.10;;;;;;5115902;28;1045;-42
2021/12/15 02:57:41;;;;;;;;;;;23.20;52.10;;;;;;5116341;28;1992;-42
2021/12/15 03:00:17;;;;;;;;;;;23.20;52.20;;;;;;5115829;28;1124;-42
2021/12/15 03:03:15;;;;;;;;;;;23.20;52.30;;;;;;5115415;28;1006;-43
2021/12/15 03:05:47;;;;;;;;;;;23.20;52.30;;;;;;5116293;28;1003;-42
2021/12/15 03:08:18;;;;;;;;;;;23.20;52.30;;;;;;5115552;28;998;-42
2021/12/15 03:16:33;;;;;;;;;;;23.20;52.50;;;;;;5113082;28;1890;-43
2021/12/15 03:19:00;;;;;;;;;;;23.10;52.50;;;;;;5115583;28;963;-42
2021/12/15 03:21:30;;;;;;;;;;;23.20;52.50;;;;;;5115929;28;990;-41
2021/12/15 03:23:58;;;;;;;;;;;23.10;52.50;;;;;;5116048;28;927;-42
2021/12/15 03:26:33;;;;;;;;;;;23.20;52.60;;;;;;5115854;28;927;-42
2021/12/15 03:35:01;;;;;;;;;;;23.10;52.70;;;;;;5114065;28;893;-42
2021/12/15 03:37:28;;;;;;;;;;;23.00;52.60;;;;;;5114772;28;1918;-42
2021/12/15 03:39:57;;;;;;;;;;;23.00;52.80;;;;;;5114608;28;967;-42
2021/12/15 03:42:29;;;;;;;;;;;23.00;52.60;;;;;;5114746;28;1007;-42
2021/12/15 03:44:56;;;;;;;;;;;23.00;52.70;;;;;;5114164;28;999;-42
2021/12/15 03:47:24;;;;;;;;;;;23.10;52.70;;;;;;5111641;28;1026;-43
2021/12/15 03:49:51;;;;;;;;;;;23.00;52.60;;;;;;5100966;28;872;-42
2021/12/15 03:52:18;;;;;;;;;;;23.00;52.60;;;;;;5101270;28;998;-43
2021/12/15 03:54:48;;;;;;;;;;;23.00;52.50;;;;;;5101010;28;942;-43
2021/12/15 03:57:15;;;;;;;;;;;23.00;52.60;;;;;;5100581;28;1914;-43
2021/12/15 03:59:44;;;;;;;;;;;23.00;52.80;;;;;;5101435;28;939;-42
2021/12/15 04:02:12;;;;;;;;;;;22.90;52.70;;;;;;5100309;28;987;-42
2021/12/15 04:04:42;;;;;;;;;;;22.90;52.70;;;;;;5100619;28;922;-42
2021/12/15 04:07:12;;;;;;;;;;;22.90;52.60;;;;;;5100113;28;1834;-42
2021/12/15 04:09:39;;;;;;;;;;;23.00;52.70;;;;;;5100824;28;988;-43
2021/12/15 04:12:07;;;;;;;;;;;23.00;53.90;;;;;;5099935;28;979;-42
2021/12/15 04:14:43;;;;;;;;;;;23.00;52.70;;;;;;5100157;28;880;-42
2021/12/15 04:17:26;;;;;;;;;;;23.00;52.70;;;;;;5099861;28;1977;-42
2021/12/15 04:19:54;;;;;;;;;;;23.00;52.60;;;;;;5099881;28;966;-43
2021/12/15 04:22:21;;;;;;;;;;;23.00;52.60;;;;;;5099823;28;987;-42
2021/12/15 04:24:47;;;;;;;;;;;23.00;52.60;;;;;;5099471;28;1183;-42
2021/12/15 04:27:14;;;;;;;;;;;23.00;52.60;;;;;;5100042;28;992;-42
2021/12/15 04:29:41;;;;;;;;;;;22.90;52.70;;;;;;5100159;28;1025;-42
2021/12/15 04:32:14;;;;;;;;;;;22.90;52.60;;;;;;5099802;28;994;-41
2021/12/15 04:34:41;;;;;;;;;;;23.00;52.70;;;;;;5100213;28;972;-42
2021/12/15 04:37:07;;;;;;;;;;;23.00;52.70;;;;;;5099719;28;1901;-42
2021/12/15 04:39:34;;;;;;;;;;;23.00;52.60;;;;;;5099733;28;928;-42
2021/12/15 04:42:01;;;;;;;;;;;23.00;52.60;;;;;;5099925;28;931;-42
2021/12/15 04:44:29;;;;;;;;;;;22.90;52.50;;;;;;5099524;28;939;-42
2021/12/15 04:46:59;;;;;;;;;;;22.90;52.70;;;;;;5099785;28;995;-42
2021/12/15 04:49:29;;;;;;;;;;;22.90;52.80;;;;;;5099526;28;1022;-42
2021/12/15 04:51:56;;;;;;;;;;;23.00;52.90;;;;;;5099813;28;1006;-44
2021/12/15 04:54:22;;;;;;;;;;;23.00;52.80;;;;;;5099594;28;939;-42
2021/12/15 04:56:49;;;;;;;;;;;23.00;54.00;;;;;;5099214;28;1910;-42
2021/12/15 04:59:16;;;;;;;;;;;23.00;52.80;;;;;;5099013;28;935;-42
2021/12/15 05:01:46;;;;;;;;;;;22.90;52.80;;;;;;5098766;28;927;-42
2021/12/15 05:04:13;;;;;;;;;;;23.00;52.90;;;;;;5099566;28;918;-42
2021/12/15 05:06:42;;;;;;;;;;;22.90;52.80;;;;;;5099025;28;991;-43
2021/12/15 05:09:08;;;;;;;;;;;22.90;52.80;;;;;;5099346;28;1238;-42
2021/12/15 05:11:36;;;;;;;;;;;22.90;52.70;;;;;;5099218;28;927;-42
2021/12/15 05:14:03;;;;;;;;;;;22.90;52.80;;;;;;5099565;28;946;-41
2021/12/15 05:16:30;;;;;;;;;;;22.90;52.80;;;;;;5099739;28;1898;-41
2021/12/15 05:18:57;;;;;;;;;;;22.90;52.90;;;;;;5100649;28;1005;-41
2021/12/15 05:21:28;;;;;;;;;;;22.90;52.90;;;;;;5100833;28;967;-41
2021/12/15 05:24:00;;;;;;;;;;;22.90;52.90;;;;;;5100057;28;935;-41
2021/12/15 05:26:27;;;;;;;;;;;22.90;53.00;;;;;;5100820;28;886;-41
2021/12/15 05:28:54;;;;;;;;;;;22.90;53.00;;;;;;5100178;28;1258;-41
2021/12/15 05:31:20;;;;;;;;;;;22.90;53.00;;;;;;5100735;28;999;-41
2021/12/15 05:33:47;;;;;;;;;;;22.80;52.90;;;;;;5100560;28;1026;-41
2021/12/15 05:36:14;;;;;;;;;;;22.90;53.10;;;;;;5098881;28;1914;-41
2021/12/15 05:38:41;;;;;;;;;;;22.90;53.00;;;;;;5099485;28;998;-40
2021/12/15 05:41:09;;;;;;;;;;;22.80;53.00;;;;;;5100046;28;1030;-40
2021/12/15 05:43:36;;;;;;;;;;;22.90;53.10;;;;;;5098928;28;1013;-41
2021/12/15 05:46:03;;;;;;;;;;;22.80;53.00;;;;;;5099633;28;888;-41
2021/12/15 05:48:30;;;;;;;;;;;22.80;53.00;;;;;;5099692;28;950;-42
2021/12/15 05:50:56;;;;;;;;;;;22.80;53.00;;;;;;5099318;28;994;-41
2021/12/15 05:53:23;;;;;;;;;;;22.80;53.10;;;;;;5099725;28;883;-41
2021/12/15 05:55:51;;;;;;;;;;;22.80;53.10;;;;;;5099274;28;919;-41
2021/12/15 05:58:19;;;;;;;;;;;22.80;53.10;;;;;;5099435;28;1917;-41
2021/12/15 06:00:47;;;;;;;;;;;22.80;53.10;;;;;;5098668;28;1014;-41
2021/12/15 06:03:14;;;;;;;;;;;22.80;53.10;;;;;;5097885;28;998;-42
2021/12/15 06:05:41;;;;;;;;;;;22.80;53.10;;;;;;5099625;28;943;-41
2021/12/15 06:08:09;;;;;;;;;;;22.80;53.10;;;;;;5098687;28;912;-41
2021/12/15 06:10:37;;;;;;;;;;;22.80;53.10;;;;;;5097510;28;1861;-41
2021/12/15 06:13:04;;;;;;;;;;;22.80;53.20;;;;;;5097955;28;1001;-41
2021/12/15 06:15:33;;;;;;;;;;;22.80;53.20;;;;;;5098017;28;1007;-41
2021/12/15 06:18:01;;;;;;;;;;;22.70;53.00;;;;;;5097554;28;1913;-41
2021/12/15 06:20:28;;;;;;;;;;;22.80;53.10;;;;;;5097006;28;947;-42
2021/12/15 06:22:55;;;;;;;;;;;22.80;53.10;;;;;;5097139;28;999;-41
2021/12/15 06:25:22;;;;;;;;;;;22.80;54.20;;;;;;5096313;28;1142;-40
2021/12/15 06:27:49;;;;;;;;;;;22.80;53.10;;;;;;5095837;28;983;-40
2021/12/15 06:30:16;;;;;;;;;;;22.80;53.10;;;;;;5096792;28;681;-41
2021/12/15 06:32:44;;;;;;;;;;;22.80;53.10;;;;;;5097311;28;895;-41
2021/12/15 06:35:11;;;;;;;;;;;22.80;53.10;;;;;;5097793;28;946;-40
2021/12/15 06:37:38;;;;;;;;;;;22.80;53.00;;;;;;5095833;28;1902;-41
2021/12/15 06:40:08;;;;;;;;;;;22.80;53.00;;;;;;5096960;28;1035;-42
2021/12/15 06:42:35;;;;;;;;;;;22.80;53.00;;;;;;5096605;28;1083;-41
2021/12/15 06:45:05;;;;;;;;;;;22.80;53.10;;;;;;5097145;28;851;-41
2021/12/15 06:58:29;;;;;;;;;;;22.70;53.10;;;;;;5096778;28;1964;-41
2021/12/15 07:00:57;;;;;;;;;;;22.80;53.10;;;;;;5096571;28;1021;-41
2021/12/15 07:03:24;;;;;;;;;;;22.70;53.00;;;;;;5096825;28;959;-41
2021/12/15 07:05:55;;;;;;;;;;;22.70;53.10;;;;;;5097858;28;983;-41
2021/12/15 07:08:22;;;;;;;;;;;22.80;53.20;;;;;;5097229;28;1026;-41
2021/12/15 07:10:51;;;;;;;;;;;22.80;53.10;;;;;;5097223;28;1037;-42
2021/12/15 07:13:18;;;;;;;;;;;22.70;53.10;;;;;;5097211;28;951;-41
2021/12/15 07:15:46;;;;;;;;;;;22.70;53.20;;;;;;5097063;28;974;-41
2021/12/15 07:18:25;;;;;;;;;;;22.70;53.20;;;;;;5097668;28;1898;-41
2021/12/15 07:21:04;;;;;;;;;;;22.70;53.10;;;;;;5098194;28;1022;-42
2021/12/15 07:23:31;;;;;;;;;;;22.70;53.10;;;;;;5098863;28;1020;-41
2021/12/15 07:26:01;;;;;;;;;;;22.70;53.20;;;;;;5100873;28;1182;-41
2021/12/15 07:28:28;;;;;;;;;;;22.70;53.30;;;;;;5100034;28;1035;-41
2021/12/15 07:30:55;;;;;;;;;;;22.70;53.10;;;;;;5101366;28;998;-41
2021/12/15 07:33:22;;;;;;;;;;;22.70;53.10;;;;;;5100473;28;908;-41
2021/12/15 07:35:49;;;;;;;;;;;22.70;53.20;;;;;;5100319;28;1039;-41
2021/12/15 07:38:17;;;;;;;;;;;22.70;53.20;;;;;;5100608;28;1909;-42
2021/12/15 07:40:48;;;;;;;;;;;22.80;53.20;;;;;;5101374;28;1016;-41
2021/12/15 07:43:23;;;;;;;;;;;22.80;53.10;;;;;;5100826;28;958;-41
2021/12/15 07:45:52;;;;;;;;;;;22.80;53.10;;;;;;5101274;28;1001;-42
2021/12/15 07:48:20;;;;;;;;;;;22.70;53.20;;;;;;5100676;28;967;-42
2021/12/15 07:50:49;;;;;;;;;;;22.70;53.20;;;;;;5100008;28;999;-41
2021/12/15 07:53:18;;;;;;;;;;;22.70;53.30;;;;;;5100183;28;1019;-41
2021/12/15 07:55:46;;;;;;;;;;;22.70;53.30;;;;;;5100045;28;1013;-41
2021/12/15 07:58:12;;;;;;;;;;;22.70;53.30;;;;;;5100127;28;1961;-41
2021/12/15 08:00:40;;;;;;;;;;;22.70;53.40;;;;;;5099042;28;1046;-41
2021/12/15 08:03:08;;;;;;;;;;;22.60;53.40;;;;;;5098433;28;1125;-41
2021/12/15 08:05:35;;;;;;;;;;;22.60;53.40;;;;;;5098776;28;1127;-42
2021/12/15 08:08:02;;;;;;;;;;;22.60;53.50;;;;;;5098770;28;928;-41
2021/12/15 08:10:31;;;;;;;;;;;22.60;53.50;;;;;;5099813;28;931;-40
2021/12/15 08:12:57;;;;;;;;;;;22.60;53.50;;;;;;5099740;28;1082;-41
2021/12/15 08:15:24;;;;;;;;;;;22.60;53.50;;;;;;5100005;28;1003;-40
2021/12/15 08:17:52;;;;;;;;;;;22.60;53.50;;;;;;5100129;28;1886;-40
2021/12/15 08:20:20;;;;;;;;;;;22.60;53.60;;;;;;5100383;28;964;-41
2021/12/15 08:22:47;;;;;;;;;;;22.60;53.60;;;;;;5099702;28;1142;-40
2021/12/15 08:25:15;;;;;;;;;;;22.60;53.60;;;;;;5098213;28;992;-42
2021/12/15 08:27:43;;;;;;;;;;;22.50;53.60;;;;;;5097974;28;984;-40
2021/12/15 08:30:12;;;;;;;;;;;22.50;53.60;;;;;;5099049;28;938;-41
2021/12/15 08:32:39;;;;;;;;;;;22.50;53.50;;;;;;5099934;28;955;-40
2021/12/15 08:35:06;;;;;;;;;;;22.50;53.50;;;;;;5099649;28;887;-41
2021/12/15 08:37:34;;;;;;;;;;;22.50;53.60;;;;;;5099159;28;1898;-41
2021/12/15 08:40:01;;;;;;;;;;;22.50;53.50;;;;;;5098621;28;1909;-41
2021/12/15 08:42:29;;;;;;;;;;;22.50;53.50;;;;;;5098836;28;919;-42
2021/12/15 08:44:57;;;;;;;;;;;22.50;53.50;;;;;;5097705;28;1775;-41
2021/12/15 08:47:25;;;;;;;;;;;22.50;53.60;;;;;;5099543;28;995;-41
2021/12/15 08:49:53;;;;;;;;;;;22.50;53.60;;;;;;5099954;28;1179;-41
2021/12/15 08:52:20;;;;;;;;;;;22.50;53.60;;;;;;5098241;28;1009;-40
2021/12/15 08:54:47;;;;;;;;;;;22.50;53.70;;;;;;5099176;28;1003;-41
2021/12/15 08:57:14;;;;;;;;;;;22.50;53.60;;;;;;5099197;28;1906;-42
2021/12/15 08:59:40;;;;;;;;;;;22.50;53.60;;;;;;5098447;28;980;-41
2021/12/15 09:02:09;;;;;;;;;;;22.50;53.60;;;;;;5096954;28;884;-42
2021/12/15 09:04:36;;;;;;;;;;;22.50;53.60;;;;;;5098140;28;1013;-42
2021/12/15 09:07:03;;;;;;;;;;;22.50;53.70;;;;;;5097871;28;879;-41
2021/12/15 09:09:30;;;;;;;;;;;22.50;53.60;;;;;;5099206;28;1002;-41
2021/12/15 09:11:57;;;;;;;;;;;22.50;53.60;;;;;;5098960;28;939;-41
2021/12/15 09:14:25;;;;;;;;;;;22.50;53.70;;;;;;5098579;28;856;-41
2021/12/15 09:16:55;;;;;;;;;;;22.50;53.70;;;;;;5098750;28;999;-46
2021/12/15 09:19:25;;;;;;;;;;;22.50;53.60;;;;;;5092719;28;1898;-41
2021/12/15 09:21:55;;;;;;;;;;;22.50;53.60;;;;;;5098896;28;991;-41
2021/12/15 09:24:22;;;;;;;;;;;22.50;53.60;;;;;;5097241;28;947;-41
2021/12/15 09:26:49;;;;;;;;;;;22.50;53.70;;;;;;5097630;28;983;-41
2021/12/15 09:29:16;;;;;;;;;;;22.50;53.70;;;;;;5097871;28;983;-41
2021/12/15 09:31:43;;;;;;;;;;;22.50;53.60;;;;;;5098807;28;1014;-41
2021/12/15 09:34:14;;;;;;;;;;;22.40;53.60;;;;;;5098807;28;1018;-41
2021/12/15 09:36:43;;;;;;;;;;;22.50;53.80;;;;;;5097336;28;1523;-41
2021/12/15 09:39:11;;;;;;;;;;;22.50;53.80;;;;;;5097584;28;1987;-42
2021/12/15 09:41:38;;;;;;;;;;;22.50;53.70;;;;;;5097754;28;1141;-41
2021/12/15 09:44:09;;;;;;;;;;;22.50;53.80;;;;;;5098298;28;1011;-42
2021/12/15 09:46:42;;;;;;;;;;;22.40;53.70;;;;;;5096423;28;985;-42
2021/12/15 09:57:30;;;;;;;;;;;22.40;53.60;;;;;;5095805;28;720;-41
2021/12/15 10:02:58;;;;;;;;;;;22.40;53.70;;;;;;5097070;28;715;-41
2021/12/15 10:05:39;;;;;;;;;;;22.40;53.70;;;;;;5096959;28;923;-41
2021/12/15 10:11:31;;;;;;;;;;;22.40;53.70;;;;;;5097571;28;907;-41
2021/12/15 10:19:38;;;;;;;;;;;22.40;53.70;;;;;;5096286;28;1906;-41
2021/12/15 10:22:08;;;;;;;;;;;22.40;53.70;;;;;;5095090;28;1000;-41
2021/12/15 10:24:45;;;;;;;;;;;22.40;53.70;;;;;;5096073;28;1003;-41
2021/12/15 10:27:17;;;;;;;;;;;22.40;53.70;;;;;;5095960;28;892;-41
2021/12/15 10:30:01;;;;;;;;;;;22.50;53.80;;;;;;5095693;28;918;-42
2021/12/15 10:32:29;;;;;;;;;;;22.40;53.70;;;;;;5095009;28;963;-42
2021/12/15 10:35:00;;;;;;;;;;;22.40;53.70;;;;;;5094799;28;1487;-42
2021/12/15 10:37:28;;;;;;;;;;;22.40;53.70;;;;;;5094324;28;1041;-41
2021/12/15 10:40:10;;;;;;;;;;;22.40;53.80;;;;;;5094512;28;1984;-42
2021/12/15 10:42:36;;;;;;;;;;;22.40;53.70;;;;;;5094971;28;990;-41
2021/12/15 10:45:04;;;;;;;;;;;22.40;53.70;;;;;;5095018;28;1002;-41
2021/12/15 10:47:40;;;;;;;;;;;22.40;53.70;;;;;;5094738;28;953;-41
2021/12/15 10:50:11;;;;;;;;;;;22.40;53.70;;;;;;5094934;28;942;-42
2021/12/15 10:52:49;;;;;;;;;;;22.40;53.70;;;;;;5094267;28;990;-41
2021/12/15 10:55:17;;;;;;;;;;;22.40;53.70;;;;;;5095442;28;686;-42
2021/12/15 10:57:44;;;;;;;;;;;22.40;53.60;;;;;;5095248;28;1032;-42
2021/12/15 11:00:13;;;;;;;;;;;22.40;53.70;;;;;;5099438;28;1918;-41
2021/12/15 11:02:39;;;;;;;;;;;22.40;53.70;;;;;;5099470;28;1008;-41
2021/12/15 11:05:08;;;;;;;;;;;22.40;53.60;;;;;;5100292;28;931;-41
2021/12/15 11:07:36;;;;;;;;;;;22.40;53.70;;;;;;5099552;28;991;-42
2021/12/15 11:10:05;;;;;;;;;;;22.40;53.70;;;;;;5099227;28;969;-41
2021/12/15 11:12:35;;;;;;;;;;;22.40;53.70;;;;;;5098997;28;978;-41
2021/12/15 11:15:05;;;;;;;;;;;22.40;53.70;;;;;;5099560;28;1027;-40
2021/12/15 11:17:33;;;;;;;;;;;22.40;53.70;;;;;;5100343;28;1007;-40
2021/12/15 11:20:01;;;;;;;;;;;22.40;53.80;;;;;;5100785;28;1982;-40
2021/12/15 11:22:38;;;;;;;;;;;22.40;53.70;;;;;;5101510;28;940;-40
2021/12/15 11:25:06;;;;;;;;;;;22.40;53.70;;;;;;5101274;28;907;-40
2021/12/15 11:27:34;;;;;;;;;;;22.40;53.70;;;;;;5101704;28;988;-40
2021/12/15 11:30:01;;;;;;;;;;;22.40;53.70;;;;;;5101019;28;899;-40
2021/12/15 11:32:41;;;;;;;;;;;22.40;53.70;;;;;;5100417;28;982;-40
2021/12/15 11:35:10;;;;;;;;;;;22.40;53.70;;;;;;5101679;28;952;-40
2021/12/15 11:37:43;;;;;;;;;;;22.40;53.60;;;;;;5100460;28;1078;-40
2021/12/15 11:40:11;;;;;;;;;;;22.50;53.70;;;;;;5100062;28;1961;-40
2021/12/15 11:42:39;;;;;;;;;;;22.40;53.70;;;;;;5100075;28;860;-41
2021/12/15 11:45:07;;;;;;;;;;;22.40;53.60;;;;;;5100222;28;1017;-40
2021/12/15 11:47:34;;;;;;;;;;;22.40;53.70;;;;;;5098742;28;1951;-41
2021/12/15 11:50:06;;;;;;;;;;;22.40;53.70;;;;;;5099837;28;1045;-40
2021/12/15 11:52:37;;;;;;;;;;;22.40;53.70;;;;;;5100491;28;1061;-41
2021/12/15 11:55:05;;;;;;;;;;;22.40;53.70;;;;;;5098798;28;987;-41
2021/12/15 11:57:32;;;;;;;;;;;22.40;53.70;;;;;;5099360;28;1129;-40
2021/12/15 12:00:05;;;;;;;;;;;22.40;53.70;;;;;;5098979;28;1989;-41
2021/12/15 12:02:33;;;;;;;;;;;22.40;53.70;;;;;;5099324;28;999;-41
2021/12/15 12:05:04;;;;;;;;;;;22.40;53.70;;;;;;5099153;28;1000;-41
2021/12/15 12:07:32;;;;;;;;;;;22.40;53.80;;;;;;5099772;28;951;-41
2021/12/15 12:10:01;;;;;;;;;;;22.40;53.80;;;;;;5098176;28;1042;-41
2021/12/15 12:12:33;;;;;;;;;;;22.40;53.80;;;;;;5097441;28;963;-41
2021/12/15 12:15:02;;;;;;;;;;;22.40;53.70;;;;;;5098751;28;1006;-41
2021/12/15 12:17:29;;;;;;;;;;;22.40;53.80;;;;;;5097801;28;966;-41
2021/12/15 12:19:57;;;;;;;;;;;22.40;53.60;;;;;;5098287;28;1906;-41
2021/12/15 12:22:25;;;;;;;;;;;22.40;53.70;;;;;;5097518;28;991;-40
2021/12/15 12:24:54;;;;;;;;;;;22.40;53.70;;;;;;5097068;28;1014;-41
2021/12/15 12:27:22;;;;;;;;;;;22.40;53.70;;;;;;5097619;28;942;-41
2021/12/15 12:29:51;;;;;;;;;;;22.40;53.70;;;;;;5098415;28;931;-40
2021/12/15 12:32:19;;;;;;;;;;;22.40;53.70;;;;;;5098345;28;991;-41
2021/12/15 12:34:46;;;;;;;;;;;22.40;53.70;;;;;;5096953;28;938;-41
2021/12/15 12:37:15;;;;;;;;;;;22.40;53.70;;;;;;5096879;28;1237;-40
2021/12/15 12:39:43;;;;;;;;;;;22.40;53.70;;;;;;5096943;28;1926;-40
2021/12/15 12:42:10;;;;;;;;;;;22.40;53.80;;;;;;5098797;28;1005;-40
2021/12/15 12:44:38;;;;;;;;;;;22.40;53.80;;;;;;5098145;28;1029;-39
2021/12/15 12:47:10;;;;;;;;;;;22.40;53.70;;;;;;5097956;28;965;-40
2021/12/15 12:59:22;;;;;;;;;;;22.30;53.80;;;;;;5097559;28;658;-41
2021/12/15 13:00:51;;;;;;;;;;;22.40;53.80;;;;;;5098652;28;1976;-40
2021/12/15 13:03:28;;;;;;;;;;;22.30;53.80;;;;;;5098310;28;1462;-40
2021/12/15 13:05:58;;;;;;;;;;;22.40;53.70;;;;;;5097332;28;939;-40
2021/12/15 13:08:34;;;;;;;;;;;22.30;53.70;;;;;;5098040;28;900;-40
2021/12/15 13:11:04;;;;;;;;;;;22.40;53.70;;;;;;5097598;28;980;-40
2021/12/15 13:13:32;;;;;;;;;;;22.40;53.70;;;;;;5099738;28;987;-41
2021/12/15 13:16:00;;;;;;;;;;;22.40;53.70;;;;;;5098050;28;841;-40
2021/12/15 13:18:28;;;;;;;;;;;22.40;53.70;;;;;;5098144;28;1038;-40
2021/12/15 13:20:58;;;;;;;;;;;22.40;53.70;;;;;;5096685;28;1901;-41
2021/12/15 13:23:39;;;;;;;;;;;22.40;53.70;;;;;;5097962;28;1252;-41
2021/12/15 13:28:51;;;;;;;;;;;22.30;53.80;;;;;;5097471;28;916;-40
2021/12/15 13:31:19;;;;;;;;;;;22.30;53.70;;;;;;5097891;28;966;-41
2021/12/15 13:33:49;;;;;;;;;;;22.30;53.70;;;;;;5098315;28;991;-41
2021/12/15 13:36:18;;;;;;;;;;;22.40;53.50;;;;;;5098070;28;971;-41
2021/12/15 13:38:47;;;;;;;;;;;22.40;53.60;;;;;;5099230;28;1906;-40
2021/12/15 13:41:21;;;;;;;;;;;22.30;53.60;;;;;;5098331;28;1118;-41
2021/12/15 13:43:54;;;;;;;;;;;22.40;53.60;;;;;;5097111;28;1026;-41
2021/12/15 13:46:30;;;;;;;;;;;22.40;53.60;;;;;;5098360;28;986;-40
2021/12/15 13:49:01;;;;;;;;;;;22.40;53.60;;;;;;5099610;28;1049;-40
2021/12/15 13:51:47;;;;;;;;;;;22.40;53.50;;;;;;5096876;28;969;-41
2021/12/15 13:54:22;;;;;;;;;;;22.40;53.60;;;;;;5095044;28;1051;-41
2021/12/15 13:56:49;;;;;;;;;;;22.40;53.50;;;;;;5096775;28;1026;-41
2021/12/15 13:59:29;;;;;;;;;;;22.40;53.50;;;;;;5096623;28;1983;-41
2021/12/15 14:02:10;;;;;;;;;;;22.30;53.50;;;;;;5094795;28;1045;-41
2021/12/15 14:04:42;;;;;;;;;;;22.40;53.60;;;;;;5096199;28;1781;-41
2021/12/15 14:07:29;;;;;;;;;;;22.40;53.50;;;;;;5097768;28;967;-41
2021/12/15 14:09:58;;;;;;;;;;;22.40;53.40;;;;;;5097015;28;1245;-40
2021/12/15 14:12:49;;;;;;;;;;;22.40;53.50;;;;;;5097774;28;918;-40
2021/12/15 14:15:36;;;;;;;;;;;22.40;53.70;;;;;;5085317;28;1317;-39
2021/12/15 14:18:04;;;;;;;;;;;22.50;54.00;;;;;;5095240;28;970;-41
2021/12/15 14:20:32;;;;;;;;;;;22.60;53.30;;;;;;5095369;28;1977;-39
2021/12/15 14:22:59;;;;;;;;;;;22.90;52.90;;;;;;5097143;28;962;-39
2021/12/15 14:25:28;;;;;;;;;;;23.10;52.40;;;;;;5094598;28;1009;-39
2021/12/15 14:27:55;;;;;;;;;;;23.40;51.80;;;;;;5095994;28;860;-39
2021/12/15 14:30:22;;;;;;;;;;;23.70;51.30;;;;;;5095565;28;923;-39
2021/12/15 14:32:49;;;;;;;;;;;24.00;50.60;;;;;;5095345;28;1915;-39
2021/12/15 14:35:17;;;;;;;;;;;24.20;50.00;;;;;;5094973;28;967;-39
2021/12/15 14:37:44;;;;;;;;;;;24.40;49.60;;;;;;5094372;28;1118;-39
2021/12/15 14:40:11;;;;;;;;;;;24.60;49.10;;;;;;5096428;28;1887;-39
2021/12/15 14:42:43;;;;;;;;;;;24.70;48.60;;;;;;5096076;28;920;-39
2021/12/15 14:45:11;;;;;;;;;;;25.00;48.40;;;;;;5096013;28;995;-39
2021/12/15 14:47:39;;;;;;;;;;;25.10;48.10;;;;;;5095284;28;984;-39
2021/12/15 14:50:08;;;;;;;;;;;25.20;47.80;;;;;;5095345;28;1830;-39
2021/12/15 14:52:39;;;;;;;;;;;25.30;47.60;;;;;;5095645;28;1381;-39
2021/12/15 14:55:06;;;;;;;;;;;25.30;47.30;;;;;;5095163;28;976;-40
2021/12/15 14:57:34;;;;;;;;;;;25.40;48.20;;;;;;5095263;28;927;-41
2021/12/15 15:00:08;;;;;;;;;;;25.40;47.40;;;;;;5095320;28;1981;-41
2021/12/15 15:02:36;;;;;;;;;;;25.30;47.30;;;;;;5095099;28;927;-41
2021/12/15 15:05:07;;;;;;;;;;;25.30;47.20;;;;;;5096569;28;995;-41
2021/12/15 15:07:35;;;;;;;;;;;25.30;47.20;;;;;;5096419;28;1033;-41
2021/12/15 15:10:05;;;;;;;;;;;25.30;47.40;;;;;;5095391;28;1001;-40
2021/12/15 15:12:36;;;;;;;;;;;25.20;47.10;;;;;;5095756;28;1035;-41
2021/12/15 15:15:05;;;;;;;;;;;25.20;47.10;;;;;;5095432;28;1002;-41
2021/12/15 15:17:46;;;;;;;;;;;25.10;47.10;;;;;;5095157;28;1129;-42
2021/12/15 15:20:15;;;;;;;;;;;25.10;47.20;;;;;;5095875;28;1997;-42
2021/12/15 15:22:45;;;;;;;;;;;25.10;47.30;;;;;;5096562;28;1016;-42
2021/12/15 15:25:13;;;;;;;;;;;25.10;47.20;;;;;;5096572;28;916;-41
2021/12/15 15:27:42;;;;;;;;;;;25.00;47.30;;;;;;5096489;28;919;-40
2021/12/15 15:30:10;;;;;;;;;;;25.10;47.50;;;;;;5095593;28;1020;-41
2021/12/15 15:32:40;;;;;;;;;;;25.00;47.50;;;;;;5095289;28;1460;-42
2021/12/15 15:35:09;;;;;;;;;;;25.10;47.70;;;;;;5094521;28;1018;-41
2021/12/15 15:37:36;;;;;;;;;;;25.10;47.80;;;;;;5095438;28;1254;-41
2021/12/15 15:40:10;;;;;;;;;;;25.10;47.60;;;;;;5096676;28;1901;-42
2021/12/15 15:42:37;;;;;;;;;;;25.10;47.80;;;;;;5094828;28;1007;-41
2021/12/15 15:45:05;;;;;;;;;;;25.10;47.70;;;;;;5096602;28;1004;-41
2021/12/15 15:47:32;;;;;;;;;;;25.10;48.00;;;;;;5097063;28;999;-41
2021/12/15 15:50:02;;;;;;;;;;;25.00;47.90;;;;;;5098982;28;947;-41
2021/12/15 15:52:29;;;;;;;;;;;24.90;48.00;;;;;;5099642;28;1032;-41
2021/12/15 15:54:56;;;;;;;;;;;25.00;48.20;;;;;;5098069;28;974;-42